Time;durP1;ratioP1;P1;durP2;ratioP2;P2;SDS_P1;SDS_P2;PMS_P1;PMS_P2;Temp;Humidity;BMP_temperature;BMP_pressure;BME280_temperature;BME280_humidity;BME280_pressure;Samples;Min_cycle;Max_cycle;Signal;HPM_P1;HPM_P2
2021/11/03 00:02:06;;;;;;;87.53;51.27;;;;;;;;;;4432234;32;20276;-56
2021/11/03 00:04:34;;;;;;;94.93;48.27;;;;;;;;;;4432871;32;20232;-57
2021/11/03 00:07:00;;;;;;;90.83;51.97;;;;;;;;;;4432203;32;20354;-56
2021/11/03 00:09:26;;;;;;;101.73;52.23;;;;;;;;;;4432394;32;20296;-56
2021/11/03 00:11:52;;;;;;;89.23;48.43;;;;;;;;;;4432438;32;20297;-56
2021/11/03 00:14:18;;;;;;;94.03;48.63;;;;;;;;;;4432526;32;20351;-57
2021/11/03 00:16:43;;;;;;;95.67;51.40;;;;;;;;;;4432064;32;20619;-56
2021/11/03 00:19:08;;;;;;;93.80;51.97;;;;;;;;;;4432872;32;20300;-55
2021/11/03 00:21:34;;;;;;;97.73;49.83;;;;;;;;;;4430897;32;20268;-54
2021/11/03 00:23:59;;;;;;;90.20;51.23;;;;;;;;;;4431814;32;20355;-58
2021/11/03 00:26:25;;;;;;;107.23;51.20;;;;;;;;;;4432211;32;20290;-55
2021/11/03 00:28:51;;;;;;;94.40;50.70;;;;;;;;;;4432522;32;20307;-55
2021/11/03 00:31:16;;;;;;;91.53;51.13;;;;;;;;;;4432113;32;20355;-56
2021/11/03 00:33:42;;;;;;;110.17;56.50;;;;;;;;;;4431201;32;20315;-56
2021/11/03 00:36:07;;;;;;;103.80;55.43;;;;;;;;;;4432446;32;20232;-55
2021/11/03 00:38:33;;;;;;;97.80;52.37;;;;;;;;;;4432138;32;20287;-56
2021/11/03 00:40:59;;;;;;;116.20;56.60;;;;;;;;;;4431921;32;20288;-55
2021/11/03 00:43:25;;;;;;;101.50;54.37;;;;;;;;;;4431510;32;20299;-58
2021/11/03 00:45:51;;;;;;;118.97;54.20;;;;;;;;;;4432150;32;20283;-57
2021/11/03 00:48:17;;;;;;;120.07;54.20;;;;;;;;;;4432097;32;20401;-57
2021/11/03 00:50:43;;;;;;;114.63;58.90;;;;;;;;;;4432233;32;20387;-56
2021/11/03 00:53:09;;;;;;;115.80;62.37;;;;;;;;;;4432667;32;20344;-56
2021/11/03 00:55:35;;;;;;;129.30;64.13;;;;;;;;;;4432535;32;20371;-56
2021/11/03 00:58:00;;;;;;;134.47;66.50;;;;;;;;;;4431729;32;20237;-56
2021/11/03 01:00:26;;;;;;;132.27;68.40;;;;;;;;;;4430973;32;20332;-56
2021/11/03 01:02:52;;;;;;;132.93;67.30;;;;;;;;;;4431704;32;20301;-55
2021/11/03 01:05:21;;;;;;;143.03;64.53;;;;;;;;;;4432349;32;20339;-56
2021/11/03 01:07:47;;;;;;;143.53;68.90;;;;;;;;;;4430879;32;20256;-55
2021/11/03 01:10:13;;;;;;;122.23;61.93;;;;;;;;;;4431886;32;20310;-57
2021/11/03 01:12:40;;;;;;;117.97;60.40;;;;;;;;;;4431983;32;20224;-56
2021/11/03 01:15:09;;;;;;;126.20;59.93;;;;;;;;;;4431675;32;20551;-56
2021/11/03 01:17:35;;;;;;;133.40;59.87;;;;;;;;;;4430443;32;20274;-58
2021/11/03 01:20:02;;;;;;;116.77;54.87;;;;;;;;;;4430764;32;20323;-56
2021/11/03 01:22:28;;;;;;;134.77;64.90;;;;;;;;;;4432326;32;20268;-57
2021/11/03 01:24:53;;;;;;;151.37;70.33;;;;;;;;;;4431518;32;20803;-55
2021/11/03 01:27:19;;;;;;;166.17;74.07;;;;;;;;;;4432186;32;20319;-55
2021/11/03 01:29:44;;;;;;;112.30;54.67;;;;;;;;;;4431864;32;20606;-55
2021/11/03 01:32:10;;;;;;;109.97;55.30;;;;;;;;;;4432972;32;20638;-56
2021/11/03 01:34:35;;;;;;;109.53;55.60;;;;;;;;;;4435199;32;20299;-57
2021/11/03 01:37:00;;;;;;;111.40;51.83;;;;;;;;;;4434741;32;20248;-55
2021/11/03 01:39:26;;;;;;;95.87;45.77;;;;;;;;;;4420721;32;20342;-56
2021/11/03 01:41:52;;;;;;;99.27;47.73;;;;;;;;;;4433671;32;20701;-57
2021/11/03 01:44:18;;;;;;;81.53;40.90;;;;;;;;;;4435309;32;20309;-55
2021/11/03 01:46:57;;;;;;;75.83;36.30;;;;;;;;;;4433629;32;20612;-57
2021/11/03 01:49:23;;;;;;;80.67;34.53;;;;;;;;;;4435030;32;20233;-55
2021/11/03 01:51:52;;;;;;;65.57;34.73;;;;;;;;;;4434732;32;20757;-56
2021/11/03 01:54:23;;;;;;;51.83;27.97;;;;;;;;;;4434488;32;20640;-56
2021/11/03 01:56:49;;;;;;;60.40;30.47;;;;;;;;;;4434666;32;20270;-57
2021/11/03 01:59:24;;;;;;;57.87;31.67;;;;;;;;;;4434526;32;20296;-58
2021/11/03 02:01:49;;;;;;;60.03;29.07;;;;;;;;;;4434434;32;20360;-56
2021/11/03 02:04:16;;;;;;;61.73;28.77;;;;;;;;;;4433342;32;20319;-56
2021/11/03 02:06:42;;;;;;;59.90;30.30;;;;;;;;;;4433426;32;20228;-55
2021/11/03 02:09:08;;;;;;;59.27;30.20;;;;;;;;;;4434661;32;20330;-57
2021/11/03 02:11:33;;;;;;;56.13;29.30;;;;;;;;;;4434906;32;20307;-56
2021/11/03 02:14:02;;;;;;;58.57;29.33;;;;;;;;;;4434571;32;20334;-58
2021/11/03 02:16:28;;;;;;;67.27;30.33;;;;;;;;;;4433012;32;20241;-56
2021/11/03 02:18:54;;;;;;;64.03;32.77;;;;;;;;;;4434630;32;20300;-57
2021/11/03 02:21:51;;;;;;;59.87;29.27;;;;;;;;;;4434532;32;20707;-56
2021/11/03 02:24:26;;;;;;;67.37;29.37;;;;;;;;;;4433402;32;20859;-55
2021/11/03 02:26:52;;;;;;;55.40;28.33;;;;;;;;;;4434240;32;20288;-55
2021/11/03 02:29:21;;;;;;;60.07;31.40;;;;;;;;;;4434581;32;20689;-59
2021/11/03 02:31:50;;;;;;;47.23;24.97;;;;;;;;;;4434431;32;20427;-56
2021/11/03 02:34:27;;;;;;;56.40;27.93;;;;;;;;;;4434161;32;20231;-56
2021/11/03 02:37:13;;;;;;;55.63;22.80;;;;;;;;;;4434228;32;20292;-56
2021/11/03 02:39:44;;;;;;;47.27;23.70;;;;;;;;;;4431640;32;20736;-55
2021/11/03 02:42:13;;;;;;;42.23;23.03;;;;;;;;;;4434086;32;20358;-56
2021/11/03 02:44:41;;;;;;;63.17;29.00;;;;;;;;;;4433528;32;20240;-56
2021/11/03 02:47:06;;;;;;;67.63;28.80;;;;;;;;;;4434042;32;20232;-56
2021/11/03 02:49:35;;;;;;;60.13;29.33;;;;;;;;;;4434396;32;20348;-56
2021/11/03 02:52:02;;;;;;;63.33;30.30;;;;;;;;;;4434263;32;20240;-55
2021/11/03 02:54:27;;;;;;;62.80;30.70;;;;;;;;;;4434105;32;20324;-55
2021/11/03 02:56:55;;;;;;;65.10;30.33;;;;;;;;;;4433809;32;20337;-55
2021/11/03 02:59:26;;;;;;;53.97;29.27;;;;;;;;;;4433766;32;20322;-56
2021/11/03 03:02:02;;;;;;;64.00;29.07;;;;;;;;;;4433811;32;20692;-56
2021/11/03 03:04:45;;;;;;;63.13;29.10;;;;;;;;;;4432534;32;20240;-56
2021/11/03 03:07:12;;;;;;;59.13;29.73;;;;;;;;;;4433527;32;20592;-56
2021/11/03 03:09:38;;;;;;;51.80;28.90;;;;;;;;;;4433736;32;20225;-57
2021/11/03 03:12:06;;;;;;;57.63;28.27;;;;;;;;;;4433813;32;20221;-56
2021/11/03 03:14:38;;;;;;;60.97;25.23;;;;;;;;;;4433611;32;20264;-57
2021/11/03 03:17:05;;;;;;;44.10;20.93;;;;;;;;;;4433513;32;20236;-55
2021/11/03 03:19:31;;;;;;;35.23;18.77;;;;;;;;;;4432522;32;20279;-56
2021/11/03 03:21:56;;;;;;;33.50;18.73;;;;;;;;;;4433298;32;20220;-55
2021/11/03 03:24:23;;;;;;;49.50;21.93;;;;;;;;;;4431894;32;20781;-57
2021/11/03 03:26:49;;;;;;;38.77;17.40;;;;;;;;;;4433268;32;20281;-62
2021/11/03 03:29:16;;;;;;;34.80;18.00;;;;;;;;;;4433072;32;20221;-57
2021/11/03 03:31:42;;;;;;;32.83;18.20;;;;;;;;;;4433376;32;20279;-56
2021/11/03 03:34:11;;;;;;;33.63;18.87;;;;;;;;;;4433472;32;20724;-57
2021/11/03 03:36:37;;;;;;;34.83;18.80;;;;;;;;;;4433283;32;20276;-56
2021/11/03 03:39:05;;;;;;;35.50;17.87;;;;;;;;;;4427681;32;20679;-56
2021/11/03 03:41:31;;;;;;;39.67;19.50;;;;;;;;;;4429327;32;20313;-55
2021/11/03 03:43:57;;;;;;;38.03;19.43;;;;;;;;;;4417819;32;20295;-56
2021/11/03 03:46:23;;;;;;;35.40;17.63;;;;;;;;;;4417679;32;20590;-56
2021/11/03 03:48:50;;;;;;;35.67;18.07;;;;;;;;;;4417771;32;20294;-55
2021/11/03 03:51:15;;;;;;;32.50;18.70;;;;;;;;;;4417765;32;20217;-56
2021/11/03 03:53:41;;;;;;;51.23;23.37;;;;;;;;;;4416363;32;20295;-56
2021/11/03 03:56:07;;;;;;;44.67;22.77;;;;;;;;;;4416961;32;20323;-56
2021/11/03 03:58:33;;;;;;;40.43;19.93;;;;;;;;;;4417706;32;20716;-55
2021/11/03 04:01:00;;;;;;;33.43;18.03;;;;;;;;;;4430817;32;20225;-56
2021/11/03 04:03:25;;;;;;;39.53;20.07;;;;;;;;;;4433420;32;20204;-55
2021/11/03 04:05:51;;;;;;;41.47;19.77;;;;;;;;;;4433153;32;20302;-57
2021/11/03 04:08:19;;;;;;;45.93;22.90;;;;;;;;;;4432798;32;20300;-55
2021/11/03 04:10:45;;;;;;;36.63;20.10;;;;;;;;;;4432864;32;20269;-56
2021/11/03 04:13:12;;;;;;;38.93;18.87;;;;;;;;;;4432962;32;20212;-56
2021/11/03 04:15:37;;;;;;;33.40;18.40;;;;;;;;;;4432846;32;20296;-56
2021/11/03 04:18:03;;;;;;;46.30;19.57;;;;;;;;;;4432475;32;20324;-56
2021/11/03 04:20:29;;;;;;;48.00;20.00;;;;;;;;;;4433228;32;20280;-55
2021/11/03 04:22:54;;;;;;;46.43;23.13;;;;;;;;;;4431594;32;20349;-56
2021/11/03 04:25:20;;;;;;;52.50;27.10;;;;;;;;;;4432743;32;20300;-56
2021/11/03 04:27:46;;;;;;;45.77;23.50;;;;;;;;;;4433038;32;20229;-56
2021/11/03 04:30:16;;;;;;;36.10;21.13;;;;;;;;;;4433269;32;20315;-57
2021/11/03 04:32:42;;;;;;;37.53;17.17;;;;;;;;;;4431721;32;20319;-56
2021/11/03 04:35:07;;;;;;;34.70;16.13;;;;;;;;;;4418754;32;20371;-55
2021/11/03 04:37:33;;;;;;;33.53;17.67;;;;;;;;;;4432548;32;20737;-56
2021/11/03 04:39:59;;;;;;;34.70;17.10;;;;;;;;;;4432887;32;20389;-56
2021/11/03 04:42:24;;;;;;;41.70;20.03;;;;;;;;;;4432957;32;20288;-57
2021/11/03 04:44:50;;;;;;;38.40;18.20;;;;;;;;;;4433042;32;20394;-57
2021/11/03 04:47:15;;;;;;;41.67;18.20;;;;;;;;;;4431535;32;20236;-56
2021/11/03 04:49:41;;;;;;;46.73;20.13;;;;;;;;;;4432758;32;20310;-57
2021/11/03 04:52:07;;;;;;;42.77;19.03;;;;;;;;;;4432410;32;20236;-55
2021/11/03 04:54:33;;;;;;;49.97;18.60;;;;;;;;;;4432991;32;20271;-57
2021/11/03 04:56:59;;;;;;;53.97;18.23;;;;;;;;;;4432345;32;20259;-56
2021/11/03 04:59:25;;;;;;;39.90;19.27;;;;;;;;;;4432466;32;20296;-56
2021/11/03 05:01:51;;;;;;;41.17;20.17;;;;;;;;;;4432113;32;20240;-56
2021/11/03 05:04:17;;;;;;;39.47;18.53;;;;;;;;;;4432531;32;20284;-57
2021/11/03 05:06:45;;;;;;;43.87;20.83;;;;;;;;;;4431347;32;20237;-57
2021/11/03 05:09:11;;;;;;;44.37;21.33;;;;;;;;;;4435564;32;20827;-56
2021/11/03 05:11:37;;;;;;;42.93;20.00;;;;;;;;;;4434145;32;20278;-55
2021/11/03 05:14:03;;;;;;;38.80;19.90;;;;;;;;;;4434680;32;20325;-57
2021/11/03 05:16:29;;;;;;;33.80;19.87;;;;;;;;;;4435279;32;20221;-56
2021/11/03 05:18:55;;;;;;;38.10;19.37;;;;;;;;;;4435347;32;20426;-56
2021/11/03 05:21:21;;;;;;;31.63;17.97;;;;;;;;;;4435354;32;20255;-56
2021/11/03 05:23:47;;;;;;;30.70;16.03;;;;;;;;;;4435251;32;20719;-56
2021/11/03 05:26:17;;;;;;;36.90;15.63;;;;;;;;;;4434494;32;20256;-55
2021/11/03 05:28:44;;;;;;;28.67;16.23;;;;;;;;;;4435114;32;20244;-56
2021/11/03 05:31:09;;;;;;;32.93;18.33;;;;;;;;;;4433615;32;20327;-56
2021/11/03 05:33:35;;;;;;;35.17;20.80;;;;;;;;;;4435181;32;20761;-56
2021/11/03 05:36:00;;;;;;;31.43;17.33;;;;;;;;;;4434894;32;20329;-56
2021/11/03 05:38:26;;;;;;;40.43;17.33;;;;;;;;;;4434914;32;20342;-56
2021/11/03 05:40:51;;;;;;;27.93;16.63;;;;;;;;;;4433961;32;20719;-56
2021/11/03 05:43:16;;;;;;;35.13;19.73;;;;;;;;;;4435052;32;20437;-56
2021/11/03 05:45:42;;;;;;;28.20;17.37;;;;;;;;;;4434756;32;20347;-56
2021/11/03 05:48:09;;;;;;;26.77;14.43;;;;;;;;;;4434821;32;20583;-56
2021/11/03 05:50:35;;;;;;;31.17;17.20;;;;;;;;;;4435220;32;20575;-57
2021/11/03 05:53:01;;;;;;;36.80;18.50;;;;;;;;;;4434523;32;20330;-56
2021/11/03 05:55:26;;;;;;;36.13;19.53;;;;;;;;;;4433820;32;20368;-56
2021/11/03 05:57:52;;;;;;;35.03;17.93;;;;;;;;;;4434605;32;20285;-56
2021/11/03 06:00:24;;;;;;;36.03;17.50;;;;;;;;;;4434503;32;20304;-56
2021/11/03 06:02:50;;;;;;;37.27;19.30;;;;;;;;;;4434475;32;20296;-55
2021/11/03 06:05:16;;;;;;;52.57;20.77;;;;;;;;;;4434715;32;20307;-56
2021/11/03 06:07:55;;;;;;;41.43;20.07;;;;;;;;;;4433059;32;20268;-55
2021/11/03 06:10:40;;;;;;;42.40;23.27;;;;;;;;;;4434292;32;20208;-56
2021/11/03 06:13:07;;;;;;;38.27;20.97;;;;;;;;;;4433524;32;20233;-55
2021/11/03 06:15:33;;;;;;;44.27;22.47;;;;;;;;;;4429740;32;20209;-57
2021/11/03 06:18:00;;;;;;;60.33;26.30;;;;;;;;;;4428445;32;20263;-57
2021/11/03 06:20:26;;;;;;;46.03;23.67;;;;;;;;;;4433665;32;20313;-56
2021/11/03 06:22:52;;;;;;;41.07;21.77;;;;;;;;;;4434117;32;20281;-56
2021/11/03 06:25:18;;;;;;;38.13;20.63;;;;;;;;;;4433806;32;20833;-57
2021/11/03 06:27:46;;;;;;;36.40;17.73;;;;;;;;;;4433933;32;20692;-57
2021/11/03 06:30:16;;;;;;;36.03;19.73;;;;;;;;;;4434085;32;20220;-57
2021/11/03 06:32:42;;;;;;;36.33;18.90;;;;;;;;;;4434187;32;20225;-56
2021/11/03 06:35:08;;;;;;;36.53;18.37;;;;;;;;;;4434453;32;20345;-56
2021/11/03 06:37:34;;;;;;;36.27;18.30;;;;;;;;;;4433099;32;20451;-57
2021/11/03 06:40:00;;;;;;;34.47;19.27;;;;;;;;;;4433561;32;20754;-57
2021/11/03 06:42:25;;;;;;;41.37;20.53;;;;;;;;;;4434316;32;20299;-55
2021/11/03 06:44:51;;;;;;;40.97;21.90;;;;;;;;;;4434295;32;20315;-57
2021/11/03 06:47:19;;;;;;;39.83;21.87;;;;;;;;;;4433862;32;20669;-57
2021/11/03 06:49:46;;;;;;;45.47;22.23;;;;;;;;;;4432631;32;20225;-56
2021/11/03 06:52:12;;;;;;;46.27;23.17;;;;;;;;;;4419773;32;20259;-56
2021/11/03 06:54:38;;;;;;;54.80;26.43;;;;;;;;;;4432796;32;20387;-58
2021/11/03 06:57:04;;;;;;;54.87;27.77;;;;;;;;;;4432579;32;20253;-56
2021/11/03 06:59:30;;;;;;;68.27;34.33;;;;;;;;;;4432269;32;20763;-56
2021/11/03 07:01:55;;;;;;;43.03;26.60;;;;;;;;;;4433813;32;20297;-56
2021/11/03 07:04:21;;;;;;;47.77;27.60;;;;;;;;;;4434144;32;20276;-56
2021/11/03 07:06:47;;;;;;;49.63;26.63;;;;;;;;;;4433195;32;20674;-56
2021/11/03 07:09:13;;;;;;;59.13;29.07;;;;;;;;;;4433924;32;20759;-57
2021/11/03 07:11:39;;;;;;;54.13;28.90;;;;;;;;;;4434101;32;20329;-57
2021/11/03 07:14:06;;;;;;;61.57;32.83;;;;;;;;;;4433889;32;20329;-57
2021/11/03 07:16:32;;;;;;;68.47;33.00;;;;;;;;;;4432287;32;20420;-56
2021/11/03 07:18:57;;;;;;;74.87;38.70;;;;;;;;;;4432855;32;20291;-56
2021/11/03 07:21:23;;;;;;;49.87;29.07;;;;;;;;;;4433890;32;20301;-55
2021/11/03 07:23:48;;;;;;;43.63;22.97;;;;;;;;;;4428411;32;20324;-56
2021/11/03 07:26:14;;;;;;;46.23;22.97;;;;;;;;;;4432520;32;20298;-56
2021/11/03 07:28:40;;;;;;;45.23;26.70;;;;;;;;;;4433413;32;20284;-58
2021/11/03 07:31:07;;;;;;;43.23;25.87;;;;;;;;;;4431835;32;20577;-56
2021/11/03 07:33:33;;;;;;;47.63;27.40;;;;;;;;;;4430526;32;20244;-56
2021/11/03 07:36:00;;;;;;;42.00;25.00;;;;;;;;;;4431175;32;20352;-55
2021/11/03 07:38:26;;;;;;;47.77;25.20;;;;;;;;;;4431405;32;20217;-56
2021/11/03 07:40:55;;;;;;;40.73;23.23;;;;;;;;;;4431084;32;20276;-56
2021/11/03 07:43:21;;;;;;;51.63;26.03;;;;;;;;;;4429981;32;20324;-56
2021/11/03 07:45:49;;;;;;;42.53;26.30;;;;;;;;;;4431379;32;20284;-55
2021/11/03 07:48:15;;;;;;;53.93;29.63;;;;;;;;;;4431642;32;20330;-57
2021/11/03 07:50:44;;;;;;;69.80;33.23;;;;;;;;;;4433568;32;20296;-56
2021/11/03 07:53:12;;;;;;;60.07;33.17;;;;;;;;;;4433042;32;20245;-56
2021/11/03 07:55:42;;;;;;;51.73;28.60;;;;;;;;;;4432701;32;20657;-56
2021/11/03 07:58:12;;;;;;;59.23;29.57;;;;;;;;;;4432326;32;20242;-56
2021/11/03 08:00:37;;;;;;;61.10;28.53;;;;;;;;;;4421620;32;20205;-56
2021/11/03 08:03:03;;;;;;;44.17;25.13;;;;;;;;;;4429616;32;20673;-56
2021/11/03 08:05:29;;;;;;;49.77;26.33;;;;;;;;;;4432824;32;20348;-57
2021/11/03 08:07:57;;;;;;;54.20;27.53;;;;;;;;;;4432569;32;20252;-56
2021/11/03 08:10:24;;;;;;;53.37;26.43;;;;;;;;;;4431980;32;20284;-55
2021/11/03 08:12:53;;;;;;;45.73;25.80;;;;;;;;;;4431157;32;20827;-56
2021/11/03 08:15:19;;;;;;;56.60;27.67;;;;;;;;;;4433013;32;20649;-56
2021/11/03 08:17:44;;;;;;;54.33;29.63;;;;;;;;;;4432830;32;20224;-57
2021/11/03 08:20:14;;;;;;;42.27;26.07;;;;;;;;;;4432352;32;20334;-57
2021/11/03 08:22:41;;;;;;;44.30;26.27;;;;;;;;;;4431130;32;20422;-56
2021/11/03 08:25:07;;;;;;;52.27;26.63;;;;;;;;;;4427602;32;20315;-56
2021/11/03 08:27:33;;;;;;;46.83;24.57;;;;;;;;;;4432053;32;20631;-56
2021/11/03 08:29:58;;;;;;;43.17;26.37;;;;;;;;;;4431237;32;20262;-56
2021/11/03 08:32:27;;;;;;;66.93;34.77;;;;;;;;;;4431749;32;20259;-56
2021/11/03 08:34:54;;;;;;;69.53;36.07;;;;;;;;;;4430724;32;20340;-56
2021/11/03 08:37:25;;;;;;;67.03;36.23;;;;;;;;;;4431242;32;20232;-56
2021/11/03 08:39:52;;;;;;;63.97;30.17;;;;;;;;;;4431173;32;20379;-57
2021/11/03 08:42:19;;;;;;;51.33;25.90;;;;;;;;;;4432284;32;20257;-57
2021/11/03 08:44:45;;;;;;;49.20;25.97;;;;;;;;;;4435264;32;20231;-57
2021/11/03 08:47:11;;;;;;;54.40;29.53;;;;;;;;;;4435339;32;20291;-56
2021/11/03 08:49:38;;;;;;;46.30;27.53;;;;;;;;;;4435321;32;20303;-56
2021/11/03 08:52:04;;;;;;;50.27;26.10;;;;;;;;;;4433932;32;20871;-56
2021/11/03 08:54:34;;;;;;;48.40;28.87;;;;;;;;;;4435091;32;20361;-57
2021/11/03 08:57:00;;;;;;;64.60;33.90;;;;;;;;;;4434618;32;20228;-56
2021/11/03 08:59:27;;;;;;;49.00;26.57;;;;;;;;;;4430932;32;20713;-57
2021/11/03 09:01:52;;;;;;;31.97;20.30;;;;;;;;;;4418569;32;20307;-56
2021/11/03 09:04:18;;;;;;;31.60;19.80;;;;;;;;;;4419774;32;20292;-57
2021/11/03 09:06:43;;;;;;;35.07;22.43;;;;;;;;;;4429666;32;20576;-56
2021/11/03 09:09:09;;;;;;;47.77;28.17;;;;;;;;;;4435404;32;20313;-56
2021/11/03 09:11:34;;;;;;;49.80;26.53;;;;;;;;;;4435690;32;20753;-57
2021/11/03 09:14:00;;;;;;;82.30;36.10;;;;;;;;;;4435175;32;20331;-56
2021/11/03 09:16:26;;;;;;;67.43;33.47;;;;;;;;;;4435090;32;20262;-56
2021/11/03 09:18:52;;;;;;;60.53;33.00;;;;;;;;;;4435290;32;20217;-57
2021/11/03 09:21:18;;;;;;;58.53;33.47;;;;;;;;;;4434872;32;20260;-55
2021/11/03 09:23:45;;;;;;;50.50;30.00;;;;;;;;;;4435146;32;20330;-57
2021/11/03 09:26:11;;;;;;;63.30;36.50;;;;;;;;;;4433065;32;20368;-56
2021/11/03 09:28:39;;;;;;;61.60;34.70;;;;;;;;;;4435007;32;20204;-56
2021/11/03 09:31:06;;;;;;;52.20;31.10;;;;;;;;;;4433799;32;20240;-56
2021/11/03 09:33:34;;;;;;;46.33;28.83;;;;;;;;;;4435429;32;20277;-56
2021/11/03 09:36:00;;;;;;;36.53;20.33;;;;;;;;;;4429597;32;20427;-57
2021/11/03 09:38:27;;;;;;;37.87;22.40;;;;;;;;;;4427230;32;20239;-55
2021/11/03 09:41:15;;;;;;;38.47;21.03;;;;;;;;;;4434530;32;20242;-56
2021/11/03 09:43:45;;;;;;;40.73;25.53;;;;;;;;;;4435501;32;20285;-57
2021/11/03 09:46:25;;;;;;;45.37;27.67;;;;;;;;;;4435394;32;20295;-55
2021/11/03 09:49:14;;;;;;;68.60;36.43;;;;;;;;;;4434430;32;20364;-56
2021/11/03 09:51:48;;;;;;;51.17;32.60;;;;;;;;;;4419919;32;20237;-56
2021/11/03 09:54:19;;;;;;;62.67;37.60;;;;;;;;;;4429892;32;20748;-55
2021/11/03 09:56:48;;;;;;;61.93;37.33;;;;;;;;;;4435405;32;20646;-56
2021/11/03 09:59:38;;;;;;;55.03;32.57;;;;;;;;;;4435256;32;20366;-56
2021/11/03 10:02:34;;;;;;;58.43;34.83;;;;;;;;;;4434749;32;20283;-56
2021/11/03 10:05:12;;;;;;;65.60;36.53;;;;;;;;;;4435161;32;20291;-55
2021/11/03 10:07:57;;;;;;;58.03;35.47;;;;;;;;;;4433242;32;20295;-56
2021/11/03 10:10:39;;;;;;;64.57;35.13;;;;;;;;;;4434345;32;20347;-55
2021/11/03 10:13:36;;;;;;;62.27;37.37;;;;;;;;;;4434145;32;20773;-56
2021/11/03 10:16:21;;;;;;;63.77;40.50;;;;;;;;;;4420397;32;20229;-59
2021/11/03 10:19:27;;;;;;;72.50;35.97;;;;;;;;;;4419330;32;20223;-56
2021/11/03 10:21:54;;;;;;;57.53;36.67;;;;;;;;;;4415696;32;20549;-56
2021/11/03 10:24:34;;;;;;;65.63;42.27;;;;;;;;;;4425833;32;20296;-56
2021/11/03 10:27:13;;;;;;;76.40;41.83;;;;;;;;;;4434385;32;20331;-56
2021/11/03 10:29:41;;;;;;;67.60;39.30;;;;;;;;;;4434941;32;20231;-56
2021/11/03 10:32:10;;;;;;;65.03;39.47;;;;;;;;;;4434510;32;20351;-57
2021/11/03 10:34:35;;;;;;;65.00;42.03;;;;;;;;;;4434382;32;20280;-58
2021/11/03 10:37:13;;;;;;;58.60;39.20;;;;;;;;;;4434322;32;20542;-56
2021/11/03 10:39:48;;;;;;;73.17;39.73;;;;;;;;;;4434884;32;20303;-56
2021/11/03 10:42:28;;;;;;;67.57;39.37;;;;;;;;;;4434166;32;20335;-57
2021/11/03 10:45:15;;;;;;;54.07;34.43;;;;;;;;;;4434498;32;20525;-56
2021/11/03 10:47:51;;;;;;;67.43;40.77;;;;;;;;;;4434550;32;20316;-56
2021/11/03 10:50:39;;;;;;;54.30;35.60;;;;;;;;;;4434218;32;20274;-57
2021/11/03 10:53:28;;;;;;;47.03;30.77;;;;;;;;;;4433811;32;20463;-56
2021/11/03 10:56:05;;;;;;;34.80;23.37;;;;;;;;;;4432861;32;20301;-57
2021/11/03 10:58:37;;;;;;;45.10;26.83;;;;;;;;;;4434313;32;20240;-56
2021/11/03 11:01:11;;;;;;;37.63;25.03;;;;;;;;;;4433936;32;20255;-56
2021/11/03 11:04:06;;;;;;;35.80;25.20;;;;;;;;;;4434677;32;20276;-56
2021/11/03 11:06:38;;;;;;;29.03;19.80;;;;;;;;;;4428499;32;20578;-56
2021/11/03 11:09:25;;;;;;;26.80;17.87;;;;;;;;;;4434555;32;20212;-56
2021/11/03 11:11:57;;;;;;;33.80;23.40;;;;;;;;;;4434228;32;20225;-56
2021/11/03 11:14:24;;;;;;;50.10;33.67;;;;;;;;;;4434406;32;20216;-56
2021/11/03 11:16:58;;;;;;;26.83;20.03;;;;;;;;;;4432715;32;20304;-55
2021/11/03 11:19:55;;;;;;;32.37;21.27;;;;;;;;;;4433469;32;20248;-57
2021/11/03 11:22:20;;;;;;;28.43;18.77;;;;;;;;;;4431795;32;20315;-56
2021/11/03 11:25:03;;;;;;;30.77;18.67;;;;;;;;;;4430071;32;20342;-57
2021/11/03 11:27:30;;;;;;;22.30;16.30;;;;;;;;;;4430358;32;20289;-56
2021/11/03 11:30:15;;;;;;;24.87;17.43;;;;;;;;;;4430564;32;20221;-57
2021/11/03 11:32:53;;;;;;;25.03;18.00;;;;;;;;;;4430545;32;20268;-56
2021/11/03 11:35:45;;;;;;;25.67;17.77;;;;;;;;;;4432796;32;20602;-56
2021/11/03 11:38:29;;;;;;;30.10;19.33;;;;;;;;;;4433153;32;20355;-57
2021/11/03 11:41:02;;;;;;;30.73;21.00;;;;;;;;;;4422530;32;20216;-57
2021/11/03 11:43:36;;;;;;;32.43;22.50;;;;;;;;;;4433487;32;20652;-57
2021/11/03 11:46:13;;;;;;;36.00;24.73;;;;;;;;;;4433587;32;20225;-57
2021/11/03 11:48:40;;;;;;;38.33;23.93;;;;;;;;;;4418338;32;20518;-57
2021/11/03 11:51:11;;;;;;;34.87;23.83;;;;;;;;;;4419245;32;20297;-56
2021/11/03 11:53:58;;;;;;;36.77;23.80;;;;;;;;;;4432733;32;20212;-57
2021/11/03 11:56:28;;;;;;;45.10;26.63;;;;;;;;;;4401516;32;20300;-57
2021/11/03 11:59:05;;;;;;;41.33;25.70;;;;;;;;;;4418115;32;20241;-56
2021/11/03 12:01:49;;;;;;;39.57;26.23;;;;;;;;;;4417874;32;20255;-56
2021/11/03 12:04:20;;;;;;;43.50;27.10;;;;;;;;;;4427499;32;20913;-57
2021/11/03 12:06:46;;;;;;;41.30;26.63;;;;;;;;;;4432819;32;20299;-57
2021/11/03 12:09:26;;;;;;;41.00;25.90;;;;;;;;;;4433426;32;20279;-55
2021/11/03 12:11:55;;;;;;;50.23;28.80;;;;;;;;;;4431670;32;20232;-55
2021/11/03 12:14:39;;;;;;;64.47;40.77;;;;;;;;;;4432989;32;20353;-57
2021/11/03 12:17:07;;;;;;;57.10;34.60;;;;;;;;;;4432386;32;20258;-56
2021/11/03 12:19:36;;;;;;;86.30;61.90;;;;;;;;;;4431552;32;20859;-56
2021/11/03 12:22:09;;;;;;;62.67;38.03;;;;;;;;;;4433296;32;20240;-56
2021/11/03 12:25:00;;;;;;;47.13;31.20;;;;;;;;;;4432633;32;20225;-56
2021/11/03 12:27:29;;;;;;;54.20;29.40;;;;;;;;;;4432974;32;20237;-56
2021/11/03 12:30:16;;;;;;;44.63;27.47;;;;;;;;;;4433311;32;20286;-58
2021/11/03 12:32:44;;;;;;;53.93;30.07;;;;;;;;;;4432073;32;20337;-57
2021/11/03 12:35:18;;;;;;;44.30;26.87;;;;;;;;;;4431750;32;20310;-56
2021/11/03 12:37:52;;;;;;;41.80;26.10;;;;;;;;;;4433098;32;20240;-56
2021/11/03 12:40:29;;;;;;;39.73;23.83;;;;;;;;;;4433481;32;20229;-57
2021/11/03 12:43:14;;;;;;;38.93;22.57;;;;;;;;;;4432408;32;20252;-57
2021/11/03 12:46:01;;;;;;;33.90;22.03;;;;;;;;;;4433159;32;20242;-56
2021/11/03 12:48:36;;;;;;;52.83;29.80;;;;;;;;;;4431465;32;20236;-58
2021/11/03 12:51:26;;;;;;;46.60;27.20;;;;;;;;;;4432757;32;20285;-57
2021/11/03 12:54:05;;;;;;;49.23;30.10;;;;;;;;;;4432423;32;20280;-57
2021/11/03 12:56:39;;;;;;;48.27;27.67;;;;;;;;;;4431527;32;20232;-57
2021/11/03 12:59:18;;;;;;;44.77;28.07;;;;;;;;;;4429575;32;20756;-56
2021/11/03 13:01:48;;;;;;;38.43;23.67;;;;;;;;;;4431560;32;20280;-56
2021/11/03 13:04:24;;;;;;;43.07;25.80;;;;;;;;;;4430657;32;20236;-56
2021/11/03 13:06:59;;;;;;;39.80;25.40;;;;;;;;;;4430352;32;20698;-56
2021/11/03 13:09:52;;;;;;;45.00;25.77;;;;;;;;;;4430541;32;20645;-56
2021/11/03 13:12:23;;;;;;;36.43;22.97;;;;;;;;;;4429166;32;20245;-57
2021/11/03 13:14:56;;;;;;;47.73;25.23;;;;;;;;;;4431502;32;20208;-56
2021/11/03 13:17:33;;;;;;;38.77;24.77;;;;;;;;;;4416511;32;20248;-55
2021/11/03 13:20:01;;;;;;;41.63;24.50;;;;;;;;;;4417084;32;20259;-56
2021/11/03 13:22:29;;;;;;;42.33;26.67;;;;;;;;;;4415016;32;20352;-56
2021/11/03 13:24:56;;;;;;;48.47;29.00;;;;;;;;;;4426327;32;20216;-55
2021/11/03 13:27:26;;;;;;;48.30;29.60;;;;;;;;;;4432075;32;20586;-55
2021/11/03 13:29:55;;;;;;;49.20;29.53;;;;;;;;;;4434774;32;20275;-55
2021/11/03 13:32:33;;;;;;;41.60;27.30;;;;;;;;;;4435342;32;20264;-56
2021/11/03 13:35:04;;;;;;;43.00;27.90;;;;;;;;;;4435696;32;20221;-56
2021/11/03 13:37:58;;;;;;;45.40;26.80;;;;;;;;;;4435556;32;20554;-56
2021/11/03 13:40:32;;;;;;;37.03;25.20;;;;;;;;;;4433135;32;20358;-55
2021/11/03 13:42:58;;;;;;;41.60;26.73;;;;;;;;;;4435508;32;20225;-55
2021/11/03 13:45:23;;;;;;;41.73;26.30;;;;;;;;;;4435558;32;20345;-56
2021/11/03 13:48:07;;;;;;;42.50;26.43;;;;;;;;;;4435073;32;21038;-56
2021/11/03 13:50:52;;;;;;;48.90;29.13;;;;;;;;;;4435138;32;20229;-56
2021/11/03 13:53:40;;;;;;;44.33;29.80;;;;;;;;;;4424181;32;20252;-54
2021/11/03 13:56:06;;;;;;;51.77;30.00;;;;;;;;;;4434318;32;20743;-56
2021/11/03 13:58:34;;;;;;;48.77;29.67;;;;;;;;;;4433670;32;20303;-55
2021/11/03 14:01:15;;;;;;;86.07;42.03;;;;;;;;;;4434311;32;20236;-56
2021/11/03 14:03:55;;;;;;;75.07;42.47;;;;;;;;;;4434484;32;20280;-55
2021/11/03 14:06:32;;;;;;;58.23;32.90;;;;;;;;;;4434499;32;20287;-55
2021/11/03 14:09:23;;;;;;;73.77;44.03;;;;;;;;;;4434761;32;20221;-56
2021/11/03 14:11:55;;;;;;;85.27;49.03;;;;;;;;;;4434397;32;20224;-55
2021/11/03 14:14:22;;;;;;;65.13;42.50;;;;;;;;;;4434830;32;20670;-55
2021/11/03 14:17:00;;;;;;;65.83;42.60;;;;;;;;;;4434301;32;20321;-57
2021/11/03 14:19:32;;;;;;;87.37;52.40;;;;;;;;;;4433507;32;20576;-57
2021/11/03 14:22:00;;;;;;;85.13;56.50;;;;;;;;;;4432971;32;20649;-55
2021/11/03 14:24:28;;;;;;;91.77;56.63;;;;;;;;;;4433500;32;20248;-56
2021/11/03 14:26:54;;;;;;;113.07;61.47;;;;;;;;;;4432636;32;20323;-55
2021/11/03 14:29:19;;;;;;;108.57;66.00;;;;;;;;;;4433166;32;20270;-56
2021/11/03 14:31:47;;;;;;;118.60;71.17;;;;;;;;;;4433065;32;20627;-55
2021/11/03 14:34:20;;;;;;;106.10;68.30;;;;;;;;;;4433844;32;20244;-56